sensor_id;sensor_type;location;lat;lon;timestamp;P1;durP1;ratioP1;P2;durP2;ratioP2
17153;SDS011;8692;52.164;7.558;2023-07-09T00:01:14;5.07;;;4.68;;
17153;SDS011;8692;52.164;7.558;2023-07-09T00:03:44;5.05;;;4.55;;
17153;SDS011;8692;52.164;7.558;2023-07-09T00:06:16;5.43;;;4.80;;
17153;SDS011;8692;52.164;7.558;2023-07-09T00:08:47;5.18;;;4.68;;
17153;SDS011;8692;52.164;7.558;2023-07-09T00:11:16;5.30;;;4.80;;
17153;SDS011;8692;52.164;7.558;2023-07-09T00:13:44;5.20;;;4.70;;
17153;SDS011;8692;52.164;7.558;2023-07-09T00:16:13;5.15;;;4.68;;
17153;SDS011;8692;52.164;7.558;2023-07-09T00:18:43;5.40;;;4.90;;
17153;SDS011;8692;52.164;7.558;2023-07-09T00:21:11;4.82;;;4.43;;
17153;SDS011;8692;52.164;7.558;2023-07-09T00:23:40;5.30;;;4.80;;
17153;SDS011;8692;52.164;7.558;2023-07-09T00:26:10;5.45;;;4.72;;
17153;SDS011;8692;52.164;7.558;2023-07-09T00:28:40;5.38;;;4.72;;
17153;SDS011;8692;52.164;7.558;2023-07-09T00:31:09;5.50;;;5.00;;
17153;SDS011;8692;52.164;7.558;2023-07-09T00:33:41;5.25;;;4.75;;
17153;SDS011;8692;52.164;7.558;2023-07-09T00:36:11;5.00;;;4.50;;
17153;SDS011;8692;52.164;7.558;2023-07-09T00:38:43;5.40;;;4.88;;
17153;SDS011;8692;52.164;7.558;2023-07-09T00:41:15;5.70;;;4.80;;
17153;SDS011;8692;52.164;7.558;2023-07-09T00:43:45;5.53;;;4.97;;
17153;SDS011;8692;52.164;7.558;2023-07-09T00:49:20;5.30;;;4.80;;
17153;SDS011;8692;52.164;7.558;2023-07-09T00:51:55;5.43;;;4.90;;
17153;SDS011;8692;52.164;7.558;2023-07-09T00:54:30;4.88;;;4.45;;
17153;SDS011;8692;52.164;7.558;2023-07-09T00:57:04;5.53;;;5.03;;
17153;SDS011;8692;52.164;7.558;2023-07-09T00:59:36;5.60;;;5.07;;
17153;SDS011;8692;52.164;7.558;2023-07-09T01:02:05;6.97;;;5.50;;
17153;SDS011;8692;52.164;7.558;2023-07-09T01:04:34;5.47;;;4.95;;
17153;SDS011;8692;52.164;7.558;2023-07-09T01:07:05;5.53;;;5.03;;
17153;SDS011;8692;52.164;7.558;2023-07-09T01:09:35;5.82;;;5.32;;
17153;SDS011;8692;52.164;7.558;2023-07-09T01:12:08;5.88;;;5.15;;
17153;SDS011;8692;52.164;7.558;2023-07-09T01:14:37;6.30;;;5.63;;
17153;SDS011;8692;52.164;7.558;2023-07-09T01:17:06;5.18;;;4.78;;
17153;SDS011;8692;52.164;7.558;2023-07-09T01:19:41;5.32;;;4.82;;
17153;SDS011;8692;52.164;7.558;2023-07-09T01:22:12;5.75;;;4.80;;
17153;SDS011;8692;52.164;7.558;2023-07-09T01:24:51;5.75;;;4.93;;
17153;SDS011;8692;52.164;7.558;2023-07-09T01:27:23;5.47;;;4.97;;
17153;SDS011;8692;52.164;7.558;2023-07-09T01:29:53;5.47;;;4.70;;
17153;SDS011;8692;52.164;7.558;2023-07-09T01:32:23;5.03;;;4.63;;
17153;SDS011;8692;52.164;7.558;2023-07-09T01:34:52;5.80;;;4.97;;
17153;SDS011;8692;52.164;7.558;2023-07-09T01:37:33;6.28;;;5.50;;
17153;SDS011;8692;52.164;7.558;2023-07-09T01:40:03;5.43;;;4.93;;
17153;SDS011;8692;52.164;7.558;2023-07-09T01:42:53;7.22;;;4.75;;
17153;SDS011;8692;52.164;7.558;2023-07-09T01:45:23;5.23;;;4.73;;
17153;SDS011;8692;52.164;7.558;2023-07-09T01:47:52;6.25;;;4.82;;
17153;SDS011;8692;52.164;7.558;2023-07-09T01:50:22;5.35;;;4.85;;
17153;SDS011;8692;52.164;7.558;2023-07-09T01:52:53;5.93;;;5.22;;
17153;SDS011;8692;52.164;7.558;2023-07-09T01:55:22;6.05;;;5.20;;
17153;SDS011;8692;52.164;7.558;2023-07-09T01:57:50;5.53;;;5.03;;
17153;SDS011;8692;52.164;7.558;2023-07-09T02:00:19;5.13;;;4.63;;
17153;SDS011;8692;52.164;7.558;2023-07-09T02:02:47;6.23;;;5.37;;
17153;SDS011;8692;52.164;7.558;2023-07-09T02:05:17;6.00;;;5.43;;
17153;SDS011;8692;52.164;7.558;2023-07-09T02:07:46;5.40;;;5.00;;
17153;SDS011;8692;52.164;7.558;2023-07-09T02:10:16;5.57;;;4.87;;
17153;SDS011;8692;52.164;7.558;2023-07-09T02:12:45;5.53;;;5.00;;
17153;SDS011;8692;52.164;7.558;2023-07-09T02:15:15;5.37;;;4.87;;
17153;SDS011;8692;52.164;7.558;2023-07-09T02:17:43;6.07;;;5.53;;
17153;SDS011;8692;52.164;7.558;2023-07-09T02:20:12;5.97;;;5.45;;
17153;SDS011;8692;52.164;7.558;2023-07-09T02:22:41;5.87;;;5.27;;
17153;SDS011;8692;52.164;7.558;2023-07-09T02:25:09;6.17;;;5.57;;
17153;SDS011;8692;52.164;7.558;2023-07-09T02:27:39;5.70;;;5.20;;
17153;SDS011;8692;52.164;7.558;2023-07-09T02:30:07;5.47;;;4.97;;
17153;SDS011;8692;52.164;7.558;2023-07-09T02:32:37;5.53;;;5.03;;
17153;SDS011;8692;52.164;7.558;2023-07-09T02:35:06;5.60;;;5.03;;
17153;SDS011;8692;52.164;7.558;2023-07-09T02:37:35;6.37;;;5.73;;
17153;SDS011;8692;52.164;7.558;2023-07-09T02:40:03;5.33;;;4.83;;
17153;SDS011;8692;52.164;7.558;2023-07-09T02:42:33;5.70;;;5.20;;
17153;SDS011;8692;52.164;7.558;2023-07-09T02:45:03;5.83;;;5.20;;
17153;SDS011;8692;52.164;7.558;2023-07-09T02:47:32;5.73;;;5.23;;
17153;SDS011;8692;52.164;7.558;2023-07-09T02:50:01;5.60;;;5.10;;
17153;SDS011;8692;52.164;7.558;2023-07-09T02:52:30;5.70;;;5.20;;
17153;SDS011;8692;52.164;7.558;2023-07-09T02:54:58;6.33;;;5.70;;
17153;SDS011;8692;52.164;7.558;2023-07-09T02:57:26;5.80;;;5.30;;
17153;SDS011;8692;52.164;7.558;2023-07-09T02:59:54;5.87;;;5.37;;
17153;SDS011;8692;52.164;7.558;2023-07-09T03:02:24;5.33;;;4.70;;
17153;SDS011;8692;52.164;7.558;2023-07-09T03:04:52;6.20;;;5.10;;
17153;SDS011;8692;52.164;7.558;2023-07-09T03:07:20;6.00;;;5.40;;
17153;SDS011;8692;52.164;7.558;2023-07-09T03:09:48;6.27;;;5.40;;
17153;SDS011;8692;52.164;7.558;2023-07-09T03:12:16;6.17;;;5.57;;
17153;SDS011;8692;52.164;7.558;2023-07-09T03:14:47;5.70;;;5.20;;
17153;SDS011;8692;52.164;7.558;2023-07-09T03:17:15;6.00;;;5.40;;
17153;SDS011;8692;52.164;7.558;2023-07-09T03:19:44;6.00;;;5.50;;
17153;SDS011;8692;52.164;7.558;2023-07-09T03:22:12;6.53;;;5.93;;
17153;SDS011;8692;52.164;7.558;2023-07-09T03:24:40;6.00;;;5.50;;
17153;SDS011;8692;52.164;7.558;2023-07-09T03:27:08;6.07;;;5.57;;
17153;SDS011;8692;52.164;7.558;2023-07-09T03:29:36;5.90;;;5.30;;
17153;SDS011;8692;52.164;7.558;2023-07-09T03:32:05;6.00;;;5.40;;
17153;SDS011;8692;52.164;7.558;2023-07-09T03:34:34;6.03;;;5.43;;
17153;SDS011;8692;52.164;7.558;2023-07-09T03:37:03;5.60;;;5.10;;
17153;SDS011;8692;52.164;7.558;2023-07-09T03:39:31;6.10;;;5.50;;
17153;SDS011;8692;52.164;7.558;2023-07-09T03:41:59;7.33;;;5.77;;
17153;SDS011;8692;52.164;7.558;2023-07-09T03:44:27;6.37;;;5.47;;
17153;SDS011;8692;52.164;7.558;2023-07-09T03:46:55;5.70;;;5.20;;
17153;SDS011;8692;52.164;7.558;2023-07-09T03:49:23;6.00;;;5.40;;
17153;SDS011;8692;52.164;7.558;2023-07-09T03:51:51;6.23;;;5.27;;
17153;SDS011;8692;52.164;7.558;2023-07-09T03:54:21;6.93;;;6.22;;
17153;SDS011;8692;52.164;7.558;2023-07-09T03:56:52;6.10;;;5.57;;
17153;SDS011;8692;52.164;7.558;2023-07-09T03:59:20;5.63;;;5.13;;
17153;SDS011;8692;52.164;7.558;2023-07-09T04:01:48;6.23;;;5.63;;
17153;SDS011;8692;52.164;7.558;2023-07-09T04:04:16;6.43;;;5.80;;
17153;SDS011;8692;52.164;7.558;2023-07-09T04:06:46;8.57;;;6.23;;
17153;SDS011;8692;52.164;7.558;2023-07-09T04:09:14;5.90;;;5.40;;
17153;SDS011;8692;52.164;7.558;2023-07-09T04:11:44;6.10;;;5.50;;
17153;SDS011;8692;52.164;7.558;2023-07-09T04:14:12;6.53;;;5.93;;
17153;SDS011;8692;52.164;7.558;2023-07-09T04:16:40;5.80;;;5.30;;
17153;SDS011;8692;52.164;7.558;2023-07-09T04:19:08;5.97;;;5.47;;
17153;SDS011;8692;52.164;7.558;2023-07-09T04:21:36;6.40;;;5.80;;
17153;SDS011;8692;52.164;7.558;2023-07-09T04:24:04;6.77;;;5.47;;
17153;SDS011;8692;52.164;7.558;2023-07-09T04:26:33;6.33;;;5.73;;
17153;SDS011;8692;52.164;7.558;2023-07-09T04:29:02;6.67;;;5.97;;
17153;SDS011;8692;52.164;7.558;2023-07-09T04:31:31;6.07;;;5.47;;
17153;SDS011;8692;52.164;7.558;2023-07-09T04:33:59;6.53;;;5.83;;
17153;SDS011;8692;52.164;7.558;2023-07-09T04:36:27;6.03;;;5.53;;
17153;SDS011;8692;52.164;7.558;2023-07-09T04:38:55;6.40;;;5.87;;
17153;SDS011;8692;52.164;7.558;2023-07-09T04:41:23;6.30;;;5.70;;
17153;SDS011;8692;52.164;7.558;2023-07-09T04:43:51;6.10;;;5.40;;
17153;SDS011;8692;52.164;7.558;2023-07-09T04:46:20;6.60;;;6.00;;
17153;SDS011;8692;52.164;7.558;2023-07-09T04:48:49;6.33;;;5.73;;
17153;SDS011;8692;52.164;7.558;2023-07-09T04:51:17;6.13;;;5.63;;
17153;SDS011;8692;52.164;7.558;2023-07-09T04:53:45;6.43;;;5.73;;
17153;SDS011;8692;52.164;7.558;2023-07-09T04:56:13;6.50;;;5.90;;
17153;SDS011;8692;52.164;7.558;2023-07-09T04:58:41;6.23;;;5.63;;
17153;SDS011;8692;52.164;7.558;2023-07-09T05:01:09;6.33;;;5.73;;
17153;SDS011;8692;52.164;7.558;2023-07-09T05:03:38;6.47;;;5.87;;
17153;SDS011;8692;52.164;7.558;2023-07-09T05:06:06;6.57;;;5.97;;
17153;SDS011;8692;52.164;7.558;2023-07-09T05:08:34;6.10;;;5.50;;
17153;SDS011;8692;52.164;7.558;2023-07-09T05:11:02;7.07;;;6.43;;
17153;SDS011;8692;52.164;7.558;2023-07-09T05:13:30;6.73;;;6.13;;
17153;SDS011;8692;52.164;7.558;2023-07-09T05:15:58;7.10;;;6.07;;
17153;SDS011;8692;52.164;7.558;2023-07-09T05:18:27;6.73;;;6.13;;
17153;SDS011;8692;52.164;7.558;2023-07-09T05:20:56;6.93;;;6.33;;
17153;SDS011;8692;52.164;7.558;2023-07-09T05:23:24;7.13;;;5.97;;
17153;SDS011;8692;52.164;7.558;2023-07-09T05:25:55;6.97;;;6.30;;
17153;SDS011;8692;52.164;7.558;2023-07-09T05:28:24;6.95;;;6.20;;
17153;SDS011;8692;52.164;7.558;2023-07-09T05:30:52;8.17;;;6.93;;
17153;SDS011;8692;52.164;7.558;2023-07-09T05:33:20;8.70;;;6.05;;
17153;SDS011;8692;52.164;7.558;2023-07-09T05:35:49;7.63;;;6.65;;
17153;SDS011;8692;52.164;7.558;2023-07-09T05:38:18;7.40;;;6.60;;
17153;SDS011;8692;52.164;7.558;2023-07-09T05:40:46;7.30;;;6.03;;
17153;SDS011;8692;52.164;7.558;2023-07-09T05:43:14;7.13;;;6.53;;
17153;SDS011;8692;52.164;7.558;2023-07-09T05:45:43;7.07;;;6.32;;
17153;SDS011;8692;52.164;7.558;2023-07-09T05:48:11;7.75;;;6.75;;
17153;SDS011;8692;52.164;7.558;2023-07-09T05:50:39;7.73;;;6.60;;
17153;SDS011;8692;52.164;7.558;2023-07-09T05:53:07;8.20;;;6.57;;
17153;SDS011;8692;52.164;7.558;2023-07-09T05:55:36;10.73;;;6.77;;
17153;SDS011;8692;52.164;7.558;2023-07-09T05:58:04;10.45;;;6.50;;
17153;SDS011;8692;52.164;7.558;2023-07-09T06:00:32;7.22;;;6.57;;
17153;SDS011;8692;52.164;7.558;2023-07-09T06:03:01;8.38;;;6.05;;
17153;SDS011;8692;52.164;7.558;2023-07-09T06:05:29;7.97;;;7.17;;
17153;SDS011;8692;52.164;7.558;2023-07-09T06:07:57;7.37;;;6.70;;
17153;SDS011;8692;52.164;7.558;2023-07-09T06:10:25;7.68;;;6.85;;
17153;SDS011;8692;52.164;7.558;2023-07-09T06:12:55;7.97;;;6.75;;
17153;SDS011;8692;52.164;7.558;2023-07-09T06:15:24;8.23;;;7.28;;
17153;SDS011;8692;52.164;7.558;2023-07-09T06:17:52;8.20;;;6.78;;
17153;SDS011;8692;52.164;7.558;2023-07-09T06:20:20;6.90;;;6.30;;
17153;SDS011;8692;52.164;7.558;2023-07-09T06:22:48;9.35;;;6.40;;
17153;SDS011;8692;52.164;7.558;2023-07-09T06:25:16;9.05;;;6.28;;
17153;SDS011;8692;52.164;7.558;2023-07-09T06:27:44;6.50;;;5.90;;
17153;SDS011;8692;52.164;7.558;2023-07-09T06:30:13;7.18;;;6.45;;
17153;SDS011;8692;52.164;7.558;2023-07-09T06:32:44;10.77;;;6.38;;
17153;SDS011;8692;52.164;7.558;2023-07-09T06:35:12;7.70;;;5.75;;
17153;SDS011;8692;52.164;7.558;2023-07-09T06:37:40;7.85;;;6.15;;
17153;SDS011;8692;52.164;7.558;2023-07-09T06:40:08;7.50;;;6.80;;
17153;SDS011;8692;52.164;7.558;2023-07-09T06:42:39;7.53;;;6.72;;
17153;SDS011;8692;52.164;7.558;2023-07-09T06:45:20;7.55;;;6.65;;
17153;SDS011;8692;52.164;7.558;2023-07-09T06:47:48;8.40;;;6.55;;
17153;SDS011;8692;52.164;7.558;2023-07-09T06:50:16;6.72;;;6.07;;
17153;SDS011;8692;52.164;7.558;2023-07-09T06:52:44;8.35;;;6.50;;
17153;SDS011;8692;52.164;7.558;2023-07-09T06:55:12;7.63;;;6.20;;
17153;SDS011;8692;52.164;7.558;2023-07-09T06:57:41;7.93;;;6.68;;
17153;SDS011;8692;52.164;7.558;2023-07-09T07:00:09;6.80;;;6.05;;
17153;SDS011;8692;52.164;7.558;2023-07-09T07:02:39;7.10;;;6.18;;
17153;SDS011;8692;52.164;7.558;2023-07-09T07:05:07;7.95;;;6.50;;
17153;SDS011;8692;52.164;7.558;2023-07-09T07:07:35;8.63;;;6.45;;
17153;SDS011;8692;52.164;7.558;2023-07-09T07:10:03;6.60;;;5.90;;
17153;SDS011;8692;52.164;7.558;2023-07-09T07:12:40;8.98;;;6.63;;
17153;SDS011;8692;52.164;7.558;2023-07-09T07:15:11;7.75;;;5.93;;
17153;SDS011;8692;52.164;7.558;2023-07-09T07:17:42;6.55;;;5.95;;
17153;SDS011;8692;52.164;7.558;2023-07-09T07:20:11;7.35;;;5.88;;
17153;SDS011;8692;52.164;7.558;2023-07-09T07:22:40;7.55;;;6.00;;
17153;SDS011;8692;52.164;7.558;2023-07-09T07:25:08;6.57;;;5.97;;
17153;SDS011;8692;52.164;7.558;2023-07-09T07:27:36;6.28;;;5.65;;
17153;SDS011;8692;52.164;7.558;2023-07-09T07:30:06;6.97;;;5.63;;
17153;SDS011;8692;52.164;7.558;2023-07-09T07:32:36;6.40;;;5.80;;
17153;SDS011;8692;52.164;7.558;2023-07-09T07:35:07;8.55;;;5.85;;
17153;SDS011;8692;52.164;7.558;2023-07-09T07:37:35;6.28;;;5.50;;
17153;SDS011;8692;52.164;7.558;2023-07-09T07:40:03;5.28;;;4.85;;
17153;SDS011;8692;52.164;7.558;2023-07-09T07:42:32;8.18;;;5.90;;
17153;SDS011;8692;52.164;7.558;2023-07-09T07:45:00;9.88;;;5.80;;
17153;SDS011;8692;52.164;7.558;2023-07-09T07:47:29;7.13;;;5.75;;
17153;SDS011;8692;52.164;7.558;2023-07-09T07:49:57;7.47;;;5.78;;
17153;SDS011;8692;52.164;7.558;2023-07-09T07:52:27;7.05;;;5.82;;
17153;SDS011;8692;52.164;7.558;2023-07-09T07:54:55;6.78;;;6.18;;
17153;SDS011;8692;52.164;7.558;2023-07-09T07:57:24;6.85;;;6.13;;
17153;SDS011;8692;52.164;7.558;2023-07-09T07:59:52;7.95;;;5.70;;
17153;SDS011;8692;52.164;7.558;2023-07-09T08:02:20;7.00;;;5.18;;
17153;SDS011;8692;52.164;7.558;2023-07-09T08:04:48;6.30;;;5.70;;
17153;SDS011;8692;52.164;7.558;2023-07-09T08:07:17;6.57;;;5.65;;
17153;SDS011;8692;52.164;7.558;2023-07-09T08:09:47;6.40;;;5.40;;
17153;SDS011;8692;52.164;7.558;2023-07-09T08:12:15;8.98;;;5.50;;
17153;SDS011;8692;52.164;7.558;2023-07-09T08:14:44;6.57;;;5.45;;
17153;SDS011;8692;52.164;7.558;2023-07-09T08:17:13;7.50;;;5.85;;
17153;SDS011;8692;52.164;7.558;2023-07-09T08:19:44;8.48;;;6.15;;
17153;SDS011;8692;52.164;7.558;2023-07-09T08:22:13;7.22;;;5.65;;
17153;SDS011;8692;52.164;7.558;2023-07-09T08:24:42;8.57;;;6.22;;
17153;SDS011;8692;52.164;7.558;2023-07-09T08:27:11;6.22;;;5.13;;
17153;SDS011;8692;52.164;7.558;2023-07-09T08:29:39;5.95;;;5.38;;
17153;SDS011;8692;52.164;7.558;2023-07-09T08:32:08;5.75;;;5.20;;
17153;SDS011;8692;52.164;7.558;2023-07-09T08:34:37;8.57;;;5.88;;
17153;SDS011;8692;52.164;7.558;2023-07-09T08:37:26;6.82;;;5.68;;
17153;SDS011;8692;52.164;7.558;2023-07-09T08:39:54;7.95;;;5.80;;
17153;SDS011;8692;52.164;7.558;2023-07-09T08:42:26;9.07;;;5.82;;
17153;SDS011;8692;52.164;7.558;2023-07-09T08:45:09;6.60;;;5.82;;
17153;SDS011;8692;52.164;7.558;2023-07-09T08:47:50;6.72;;;5.95;;
17153;SDS011;8692;52.164;7.558;2023-07-09T08:50:27;6.90;;;6.15;;
17153;SDS011;8692;52.164;7.558;2023-07-09T08:53:01;9.65;;;5.80;;
17153;SDS011;8692;52.164;7.558;2023-07-09T08:55:29;10.63;;;5.90;;
17153;SDS011;8692;52.164;7.558;2023-07-09T08:58:10;6.65;;;5.70;;
17153;SDS011;8692;52.164;7.558;2023-07-09T09:00:44;7.07;;;5.88;;
17153;SDS011;8692;52.164;7.558;2023-07-09T09:03:23;6.72;;;5.47;;
17153;SDS011;8692;52.164;7.558;2023-07-09T09:05:57;7.47;;;5.88;;
17153;SDS011;8692;52.164;7.558;2023-07-09T09:08:30;7.53;;;6.25;;
17153;SDS011;8692;52.164;7.558;2023-07-09T09:11:05;6.35;;;5.40;;
17153;SDS011;8692;52.164;7.558;2023-07-09T09:13:41;8.95;;;6.45;;
17153;SDS011;8692;52.164;7.558;2023-07-09T09:16:12;6.47;;;5.45;;
17153;SDS011;8692;52.164;7.558;2023-07-09T09:18:49;8.18;;;6.40;;
17153;SDS011;8692;52.164;7.558;2023-07-09T09:21:20;6.75;;;5.03;;
17153;SDS011;8692;52.164;7.558;2023-07-09T09:23:51;8.02;;;5.50;;
17153;SDS011;8692;52.164;7.558;2023-07-09T09:26:22;9.63;;;6.05;;
17153;SDS011;8692;52.164;7.558;2023-07-09T09:28:54;7.85;;;6.25;;
17153;SDS011;8692;52.164;7.558;2023-07-09T09:31:23;11.70;;;6.50;;
17153;SDS011;8692;52.164;7.558;2023-07-09T09:33:53;7.38;;;5.90;;
17153;SDS011;8692;52.164;7.558;2023-07-09T09:36:21;8.95;;;6.65;;
17153;SDS011;8692;52.164;7.558;2023-07-09T09:38:50;7.28;;;5.60;;
17153;SDS011;8692;52.164;7.558;2023-07-09T09:41:19;7.60;;;6.07;;
17153;SDS011;8692;52.164;7.558;2023-07-09T09:43:51;7.43;;;5.85;;
17153;SDS011;8692;52.164;7.558;2023-07-09T09:46:24;9.95;;;5.70;;
17153;SDS011;8692;52.164;7.558;2023-07-09T09:48:55;9.68;;;6.28;;
17153;SDS011;8692;52.164;7.558;2023-07-09T09:51:26;7.95;;;6.35;;
17153;SDS011;8692;52.164;7.558;2023-07-09T09:53:55;9.98;;;6.68;;
17153;SDS011;8692;52.164;7.558;2023-07-09T09:56:28;11.20;;;6.63;;
17153;SDS011;8692;52.164;7.558;2023-07-09T09:58:57;9.93;;;6.35;;
17153;SDS011;8692;52.164;7.558;2023-07-09T10:01:28;7.57;;;5.90;;
17153;SDS011;8692;52.164;7.558;2023-07-09T10:03:58;10.38;;;6.03;;
17153;SDS011;8692;52.164;7.558;2023-07-09T10:06:29;15.57;;;7.07;;
17153;SDS011;8692;52.164;7.558;2023-07-09T10:09:05;10.90;;;6.30;;
17153;SDS011;8692;52.164;7.558;2023-07-09T10:11:46;10.25;;;6.20;;
17153;SDS011;8692;52.164;7.558;2023-07-09T10:19:57;6.65;;;5.78;;
17153;SDS011;8692;52.164;7.558;2023-07-09T10:22:38;11.77;;;5.72;;
17153;SDS011;8692;52.164;7.558;2023-07-09T10:25:12;8.88;;;5.88;;
17153;SDS011;8692;52.164;7.558;2023-07-09T10:27:52;12.65;;;6.55;;
17153;SDS011;8692;52.164;7.558;2023-07-09T10:30:41;6.60;;;6.00;;
17153;SDS011;8692;52.164;7.558;2023-07-09T10:33:19;6.65;;;6.05;;
17153;SDS011;8692;52.164;7.558;2023-07-09T10:35:54;9.65;;;5.60;;
17153;SDS011;8692;52.164;7.558;2023-07-09T10:38:37;10.13;;;6.07;;
17153;SDS011;8692;52.164;7.558;2023-07-09T10:41:14;9.02;;;5.60;;
17153;SDS011;8692;52.164;7.558;2023-07-09T10:43:55;10.32;;;6.03;;
17153;SDS011;8692;52.164;7.558;2023-07-09T10:46:27;8.55;;;5.20;;
17153;SDS011;8692;52.164;7.558;2023-07-09T10:49:07;7.80;;;5.30;;
17153;SDS011;8692;52.164;7.558;2023-07-09T10:51:40;6.78;;;5.13;;
17153;SDS011;8692;52.164;7.558;2023-07-09T10:54:14;10.75;;;4.93;;
17153;SDS011;8692;52.164;7.558;2023-07-09T10:56:50;9.20;;;4.65;;
17153;SDS011;8692;52.164;7.558;2023-07-09T10:59:25;6.97;;;4.55;;
17153;SDS011;8692;52.164;7.558;2023-07-09T11:01:57;6.63;;;4.30;;
17153;SDS011;8692;52.164;7.558;2023-07-09T11:04:37;19.38;;;5.85;;
17153;SDS011;8692;52.164;7.558;2023-07-09T11:07:11;10.38;;;4.20;;
17153;SDS011;8692;52.164;7.558;2023-07-09T11:09:43;10.50;;;4.47;;
17153;SDS011;8692;52.164;7.558;2023-07-09T11:12:15;10.23;;;4.35;;
17153;SDS011;8692;52.164;7.558;2023-07-09T11:14:46;8.20;;;4.35;;
17153;SDS011;8692;52.164;7.558;2023-07-09T11:17:19;7.20;;;4.03;;
17153;SDS011;8692;52.164;7.558;2023-07-09T11:19:55;6.10;;;4.25;;
17153;SDS011;8692;52.164;7.558;2023-07-09T11:22:26;16.13;;;4.60;;
17153;SDS011;8692;52.164;7.558;2023-07-09T11:25:06;15.13;;;4.43;;
17153;SDS011;8692;52.164;7.558;2023-07-09T11:27:45;8.52;;;3.85;;
17153;SDS011;8692;52.164;7.558;2023-07-09T11:30:18;9.88;;;3.90;;
17153;SDS011;8692;52.164;7.558;2023-07-09T11:32:52;8.45;;;3.55;;
17153;SDS011;8692;52.164;7.558;2023-07-09T11:35:27;19.05;;;3.90;;
17153;SDS011;8692;52.164;7.558;2023-07-09T11:37:56;11.30;;;4.20;;
17153;SDS011;8692;52.164;7.558;2023-07-09T11:40:35;13.90;;;4.30;;
17153;SDS011;8692;52.164;7.558;2023-07-09T11:43:25;6.45;;;3.92;;
17153;SDS011;8692;52.164;7.558;2023-07-09T11:45:56;4.13;;;3.30;;
17153;SDS011;8692;52.164;7.558;2023-07-09T11:48:28;28.27;;;5.82;;
17153;SDS011;8692;52.164;7.558;2023-07-09T11:51:03;16.90;;;5.30;;
17153;SDS011;8692;52.164;7.558;2023-07-09T11:53:40;20.13;;;4.90;;
17153;SDS011;8692;52.164;7.558;2023-07-09T11:56:11;58.90;;;8.88;;
17153;SDS011;8692;52.164;7.558;2023-07-09T11:58:48;24.77;;;6.82;;
17153;SDS011;8692;52.164;7.558;2023-07-09T12:01:17;87.15;;;11.75;;
17153;SDS011;8692;52.164;7.558;2023-07-09T12:03:48;38.03;;;6.57;;
17153;SDS011;8692;52.164;7.558;2023-07-09T12:06:20;16.90;;;5.47;;
17153;SDS011;8692;52.164;7.558;2023-07-09T12:08:50;12.77;;;4.43;;
17153;SDS011;8692;52.164;7.558;2023-07-09T12:11:20;10.75;;;4.85;;
17153;SDS011;8692;52.164;7.558;2023-07-09T12:13:50;6.32;;;3.83;;
17153;SDS011;8692;52.164;7.558;2023-07-09T12:16:22;8.35;;;4.00;;
17153;SDS011;8692;52.164;7.558;2023-07-09T12:18:52;8.75;;;4.28;;
17153;SDS011;8692;52.164;7.558;2023-07-09T12:21:21;4.53;;;4.13;;
17153;SDS011;8692;52.164;7.558;2023-07-09T12:23:51;4.47;;;4.03;;
17153;SDS011;8692;52.164;7.558;2023-07-09T12:26:19;7.30;;;4.03;;
17153;SDS011;8692;52.164;7.558;2023-07-09T12:28:51;8.02;;;4.53;;
17153;SDS011;8692;52.164;7.558;2023-07-09T12:31:21;5.18;;;4.30;;
17153;SDS011;8692;52.164;7.558;2023-07-09T12:33:53;7.93;;;4.15;;
17153;SDS011;8692;52.164;7.558;2023-07-09T12:36:24;10.73;;;5.25;;
17153;SDS011;8692;52.164;7.558;2023-07-09T12:38:53;12.80;;;4.53;;
17153;SDS011;8692;52.164;7.558;2023-07-09T12:41:28;20.92;;;8.05;;
17153;SDS011;8692;52.164;7.558;2023-07-09T12:44:02;21.25;;;9.85;;
17153;SDS011;8692;52.164;7.558;2023-07-09T12:46:31;12.65;;;7.25;;
17153;SDS011;8692;52.164;7.558;2023-07-09T12:48:59;24.40;;;10.93;;
17153;SDS011;8692;52.164;7.558;2023-07-09T12:51:29;43.63;;;10.27;;
17153;SDS011;8692;52.164;7.558;2023-07-09T12:54:02;40.22;;;8.63;;
17153;SDS011;8692;52.164;7.558;2023-07-09T12:56:30;7.22;;;5.43;;
17153;SDS011;8692;52.164;7.558;2023-07-09T12:59:02;11.20;;;4.93;;
17153;SDS011;8692;52.164;7.558;2023-07-09T13:01:42;5.43;;;4.70;;
17153;SDS011;8692;52.164;7.558;2023-07-09T13:04:16;12.07;;;4.35;;
17153;SDS011;8692;52.164;7.558;2023-07-09T13:06:46;6.65;;;4.70;;
17153;SDS011;8692;52.164;7.558;2023-07-09T13:09:16;8.60;;;4.55;;
17153;SDS011;8692;52.164;7.558;2023-07-09T13:11:48;4.95;;;4.38;;
17153;SDS011;8692;52.164;7.558;2023-07-09T13:14:18;8.27;;;4.65;;
17153;SDS011;8692;52.164;7.558;2023-07-09T13:16:47;5.10;;;4.60;;
17153;SDS011;8692;52.164;7.558;2023-07-09T13:19:16;4.82;;;4.13;;
17153;SDS011;8692;52.164;7.558;2023-07-09T13:21:46;6.78;;;4.80;;
17153;SDS011;8692;52.164;7.558;2023-07-09T13:24:15;6.05;;;4.72;;
17153;SDS011;8692;52.164;7.558;2023-07-09T13:26:46;5.97;;;4.90;;
17153;SDS011;8692;52.164;7.558;2023-07-09T13:29:15;5.90;;;4.78;;
17153;SDS011;8692;52.164;7.558;2023-07-09T13:31:44;5.00;;;4.57;;
17153;SDS011;8692;52.164;7.558;2023-07-09T13:34:20;5.75;;;4.65;;
17153;SDS011;8692;52.164;7.558;2023-07-09T13:36:51;6.47;;;4.70;;
17153;SDS011;8692;52.164;7.558;2023-07-09T13:39:22;6.55;;;4.60;;
17153;SDS011;8692;52.164;7.558;2023-07-09T13:41:54;6.47;;;4.75;;
17153;SDS011;8692;52.164;7.558;2023-07-09T13:44:25;7.82;;;4.63;;
17153;SDS011;8692;52.164;7.558;2023-07-09T13:46:54;6.07;;;4.88;;
17153;SDS011;8692;52.164;7.558;2023-07-09T13:49:23;5.50;;;4.90;;
17153;SDS011;8692;52.164;7.558;2023-07-09T13:51:57;4.70;;;4.30;;
17153;SDS011;8692;52.164;7.558;2023-07-09T13:54:28;5.97;;;4.88;;
17153;SDS011;8692;52.164;7.558;2023-07-09T13:57:01;10.07;;;4.07;;
17153;SDS011;8692;52.164;7.558;2023-07-09T13:59:30;6.80;;;4.40;;
17153;SDS011;8692;52.164;7.558;2023-07-09T14:01:59;7.13;;;3.80;;
17153;SDS011;8692;52.164;7.558;2023-07-09T14:04:30;6.05;;;4.55;;
17153;SDS011;8692;52.164;7.558;2023-07-09T14:07:00;4.72;;;4.28;;
17153;SDS011;8692;52.164;7.558;2023-07-09T14:09:28;6.60;;;4.55;;
17153;SDS011;8692;52.164;7.558;2023-07-09T14:11:56;9.05;;;4.38;;
17153;SDS011;8692;52.164;7.558;2023-07-09T14:14:24;6.22;;;4.40;;
17153;SDS011;8692;52.164;7.558;2023-07-09T14:16:56;10.98;;;4.28;;
17153;SDS011;8692;52.164;7.558;2023-07-09T14:19:26;4.53;;;4.10;;
17153;SDS011;8692;52.164;7.558;2023-07-09T14:21:54;8.70;;;3.78;;
17153;SDS011;8692;52.164;7.558;2023-07-09T14:24:24;6.10;;;4.63;;
17153;SDS011;8692;52.164;7.558;2023-07-09T14:26:55;6.75;;;3.88;;
17153;SDS011;8692;52.164;7.558;2023-07-09T14:29:24;5.05;;;4.10;;
17153;SDS011;8692;52.164;7.558;2023-07-09T14:31:53;6.65;;;4.07;;
17153;SDS011;8692;52.164;7.558;2023-07-09T14:34:22;4.45;;;4.05;;
17153;SDS011;8692;52.164;7.558;2023-07-09T14:36:52;5.32;;;3.85;;
17153;SDS011;8692;52.164;7.558;2023-07-09T14:39:21;4.72;;;3.97;;
17153;SDS011;8692;52.164;7.558;2023-07-09T14:41:52;5.55;;;4.25;;
17153;SDS011;8692;52.164;7.558;2023-07-09T14:44:22;5.00;;;4.25;;
17153;SDS011;8692;52.164;7.558;2023-07-09T14:46:52;8.07;;;4.82;;
17153;SDS011;8692;52.164;7.558;2023-07-09T14:49:21;5.13;;;4.30;;
17153;SDS011;8692;52.164;7.558;2023-07-09T14:51:50;5.28;;;4.78;;
17153;SDS011;8692;52.164;7.558;2023-07-09T14:54:19;5.90;;;5.13;;
17153;SDS011;8692;52.164;7.558;2023-07-09T14:56:52;6.22;;;4.35;;
17153;SDS011;8692;52.164;7.558;2023-07-09T14:59:20;6.63;;;4.70;;
17153;SDS011;8692;52.164;7.558;2023-07-09T15:01:48;5.05;;;4.43;;
17153;SDS011;8692;52.164;7.558;2023-07-09T15:04:25;5.25;;;4.45;;
17153;SDS011;8692;52.164;7.558;2023-07-09T15:06:56;6.00;;;4.45;;
17153;SDS011;8692;52.164;7.558;2023-07-09T15:09:25;5.18;;;4.60;;
17153;SDS011;8692;52.164;7.558;2023-07-09T15:11:57;5.95;;;5.10;;
17153;SDS011;8692;52.164;7.558;2023-07-09T15:14:26;5.63;;;4.53;;
17153;SDS011;8692;52.164;7.558;2023-07-09T15:16:55;5.47;;;4.85;;
17153;SDS011;8692;52.164;7.558;2023-07-09T15:19:26;5.45;;;4.95;;
17153;SDS011;8692;52.164;7.558;2023-07-09T15:21:55;6.00;;;4.63;;
17153;SDS011;8692;52.164;7.558;2023-07-09T15:24:25;6.50;;;4.70;;
17153;SDS011;8692;52.164;7.558;2023-07-09T15:26:56;4.70;;;4.28;;
17153;SDS011;8692;52.164;7.558;2023-07-09T15:29:26;4.82;;;4.40;;